sensor_id;sensor_type;location;lat;lon;timestamp;P1;durP1;ratioP1;P2;durP2;ratioP2
45936;SDS011;31649;46.510;6.498;2023-03-14T06:52:21;20.20;;;4.15;;
45936;SDS011;31649;46.510;6.498;2023-03-14T06:54:47;23.02;;;7.85;;
45936;SDS011;31649;46.510;6.498;2023-03-14T06:57:14;22.50;;;6.10;;
45936;SDS011;31649;46.510;6.498;2023-03-14T06:59:43;12.07;;;4.53;;
45936;SDS011;31649;46.510;6.498;2023-03-14T07:02:12;15.40;;;6.22;;
45936;SDS011;31649;46.510;6.498;2023-03-14T07:04:41;63.00;;;27.38;;
45936;SDS011;31649;46.510;6.498;2023-03-14T07:07:06;48.90;;;22.27;;
45936;SDS011;31649;46.510;6.498;2023-03-14T07:09:33;75.00;;;27.65;;
45936;SDS011;31649;46.510;6.498;2023-03-14T07:12:03;95.45;;;36.08;;
45936;SDS011;31649;46.510;6.498;2023-03-14T07:14:38;97.15;;;41.42;;
45936;SDS011;31649;46.510;6.498;2023-03-14T07:17:09;103.43;;;41.45;;
45936;SDS011;31649;46.510;6.498;2023-03-14T07:19:38;99.18;;;34.25;;
45936;SDS011;31649;46.510;6.498;2023-03-14T07:22:04;218.27;;;101.72;;
45936;SDS011;31649;46.510;6.498;2023-03-14T07:24:30;413.85;;;233.65;;
45936;SDS011;31649;46.510;6.498;2023-03-14T07:26:56;176.73;;;74.43;;
45936;SDS011;31649;46.510;6.498;2023-03-14T07:29:22;179.85;;;51.53;;
45936;SDS011;31649;46.510;6.498;2023-03-14T07:31:47;126.03;;;44.78;;
45936;SDS011;31649;46.510;6.498;2023-03-14T07:34:13;147.82;;;45.75;;
45936;SDS011;31649;46.510;6.498;2023-03-14T07:36:40;172.15;;;40.33;;
45936;SDS011;31649;46.510;6.498;2023-03-14T07:39:07;289.48;;;39.17;;
45936;SDS011;31649;46.510;6.498;2023-03-14T07:41:33;360.88;;;37.75;;
45936;SDS011;31649;46.510;6.498;2023-03-14T07:44:00;290.92;;;36.00;;
45936;SDS011;31649;46.510;6.498;2023-03-14T07:46:27;388.50;;;51.92;;
45936;SDS011;31649;46.510;6.498;2023-03-14T07:48:53;258.02;;;38.92;;
45936;SDS011;31649;46.510;6.498;2023-03-14T07:51:19;218.65;;;26.58;;
45936;SDS011;31649;46.510;6.498;2023-03-14T07:53:45;546.83;;;57.28;;
45936;SDS011;31649;46.510;6.498;2023-03-14T07:56:11;501.90;;;56.40;;
45936;SDS011;31649;46.510;6.498;2023-03-14T07:58:37;363.83;;;44.53;;
45936;SDS011;31649;46.510;6.498;2023-03-14T08:01:04;548.22;;;58.47;;
45936;SDS011;31649;46.510;6.498;2023-03-14T08:03:30;409.42;;;39.72;;
45936;SDS011;31649;46.510;6.498;2023-03-14T08:05:56;368.13;;;32.70;;
45936;SDS011;31649;46.510;6.498;2023-03-14T08:08:22;348.10;;;33.13;;
45936;SDS011;31649;46.510;6.498;2023-03-14T08:10:48;229.88;;;28.05;;
45936;SDS011;31649;46.510;6.498;2023-03-14T08:13:13;362.55;;;37.05;;
45936;SDS011;31649;46.510;6.498;2023-03-14T08:15:39;374.00;;;33.97;;
45936;SDS011;31649;46.510;6.498;2023-03-14T08:18:05;157.20;;;20.58;;
45936;SDS011;31649;46.510;6.498;2023-03-14T08:20:31;203.32;;;23.00;;
45936;SDS011;31649;46.510;6.498;2023-03-14T08:22:58;57.92;;;18.35;;
45936;SDS011;31649;46.510;6.498;2023-03-14T08:25:25;165.73;;;24.02;;
45936;SDS011;31649;46.510;6.498;2023-03-14T08:27:52;50.10;;;14.73;;
45936;SDS011;31649;46.510;6.498;2023-03-14T08:30:19;87.63;;;17.50;;
45936;SDS011;31649;46.510;6.498;2023-03-14T08:32:46;46.90;;;15.02;;
45936;SDS011;31649;46.510;6.498;2023-03-14T08:35:12;40.58;;;18.25;;
45936;SDS011;31649;46.510;6.498;2023-03-14T08:37:38;103.75;;;24.00;;
45936;SDS011;31649;46.510;6.498;2023-03-14T08:40:04;84.25;;;19.35;;
45936;SDS011;31649;46.510;6.498;2023-03-14T08:42:38;422.55;;;44.97;;
45936;SDS011;31649;46.510;6.498;2023-03-14T08:45:05;97.70;;;19.27;;
45936;SDS011;31649;46.510;6.498;2023-03-14T08:47:33;170.30;;;20.00;;
45936;SDS011;31649;46.510;6.498;2023-03-14T08:49:59;102.07;;;13.68;;
45936;SDS011;31649;46.510;6.498;2023-03-14T08:52:25;78.53;;;14.82;;
45936;SDS011;31649;46.510;6.498;2023-03-14T08:54:50;164.27;;;16.45;;
45936;SDS011;31649;46.510;6.498;2023-03-14T08:57:16;215.23;;;22.80;;
45936;SDS011;31649;46.510;6.498;2023-03-14T08:59:42;174.32;;;16.63;;
45936;SDS011;31649;46.510;6.498;2023-03-14T09:02:11;276.40;;;29.25;;
45936;SDS011;31649;46.510;6.498;2023-03-14T09:04:37;362.05;;;33.10;;
45936;SDS011;31649;46.510;6.498;2023-03-14T09:07:02;276.83;;;22.58;;
45936;SDS011;31649;46.510;6.498;2023-03-14T09:09:28;314.73;;;27.27;;
45936;SDS011;31649;46.510;6.498;2023-03-14T09:11:53;219.23;;;22.17;;
45936;SDS011;31649;46.510;6.498;2023-03-14T09:14:19;96.07;;;8.35;;
45936;SDS011;31649;46.510;6.498;2023-03-14T09:16:44;46.70;;;4.75;;
45936;SDS011;31649;46.510;6.498;2023-03-14T09:19:10;164.70;;;12.43;;
45936;SDS011;31649;46.510;6.498;2023-03-14T09:21:36;270.10;;;18.05;;
45936;SDS011;31649;46.510;6.498;2023-03-14T09:24:03;139.43;;;12.05;;
45936;SDS011;31649;46.510;6.498;2023-03-14T09:26:29;134.38;;;10.80;;
45936;SDS011;31649;46.510;6.498;2023-03-14T09:28:55;152.68;;;12.10;;
45936;SDS011;31649;46.510;6.498;2023-03-14T09:31:20;129.23;;;10.32;;
45936;SDS011;31649;46.510;6.498;2023-03-14T09:33:46;152.35;;;12.15;;
45936;SDS011;31649;46.510;6.498;2023-03-14T09:36:12;319.02;;;25.85;;
45936;SDS011;31649;46.510;6.498;2023-03-14T09:38:37;191.18;;;14.63;;
45936;SDS011;31649;46.510;6.498;2023-03-14T09:41:03;661.55;;;48.88;;
45936;SDS011;31649;46.510;6.498;2023-03-14T09:44:00;283.92;;;24.33;;
45936;SDS011;31649;46.510;6.498;2023-03-14T09:46:46;437.60;;;44.53;;
45936;SDS011;31649;46.510;6.498;2023-03-14T09:51:54;236.30;;;24.20;;
45936;SDS011;31649;46.510;6.498;2023-03-14T09:54:38;400.02;;;31.33;;
45936;SDS011;31649;46.510;6.498;2023-03-14T09:57:12;497.00;;;41.28;;
45936;SDS011;31649;46.510;6.498;2023-03-14T09:59:41;232.02;;;18.33;;
45936;SDS011;31649;46.510;6.498;2023-03-14T10:02:19;177.38;;;14.93;;
45936;SDS011;31649;46.510;6.498;2023-03-14T10:04:48;136.50;;;12.38;;
45936;SDS011;31649;46.510;6.498;2023-03-14T10:07:16;103.20;;;8.73;;
45936;SDS011;31649;46.510;6.498;2023-03-14T10:09:49;103.28;;;7.30;;
45936;SDS011;31649;46.510;6.498;2023-03-14T10:12:16;65.22;;;6.75;;
45936;SDS011;31649;46.510;6.498;2023-03-14T10:14:52;44.88;;;5.90;;
45936;SDS011;31649;46.510;6.498;2023-03-14T10:17:19;61.80;;;5.70;;
45936;SDS011;31649;46.510;6.498;2023-03-14T10:19:52;65.80;;;5.40;;
45936;SDS011;31649;46.510;6.498;2023-03-14T10:22:23;40.80;;;4.93;;
45936;SDS011;31649;46.510;6.498;2023-03-14T10:24:52;31.98;;;3.08;;
45936;SDS011;31649;46.510;6.498;2023-03-14T10:27:23;32.30;;;3.58;;
45936;SDS011;31649;46.510;6.498;2023-03-14T10:29:56;50.90;;;4.95;;
45936;SDS011;31649;46.510;6.498;2023-03-14T10:32:28;167.32;;;85.32;;
45936;SDS011;31649;46.510;6.498;2023-03-14T10:37:55;18.88;;;10.82;;
45936;SDS011;31649;46.510;6.498;2023-03-14T10:40:30;194.02;;;96.80;;
45936;SDS011;31649;46.510;6.498;2023-03-14T10:42:59;77.25;;;35.03;;
45936;SDS011;31649;46.510;6.498;2023-03-14T10:45:47;73.55;;;26.58;;
45936;SDS011;31649;46.510;6.498;2023-03-14T10:48:22;47.45;;;14.85;;
45936;SDS011;31649;46.510;6.498;2023-03-14T10:51:03;150.98;;;9.30;;
45936;SDS011;31649;46.510;6.498;2023-03-14T10:56:15;68.93;;;8.27;;
45936;SDS011;31649;46.510;6.498;2023-03-14T10:58:44;52.00;;;7.55;;
45936;SDS011;31649;46.510;6.498;2023-03-14T11:01:23;45.30;;;8.52;;
45936;SDS011;31649;46.510;6.498;2023-03-14T11:04:14;42.00;;;7.88;;
45936;SDS011;31649;46.510;6.498;2023-03-14T11:12:41;14.82;;;2.80;;
45936;SDS011;31649;46.510;6.498;2023-03-14T11:15:20;72.18;;;5.53;;
45936;SDS011;31649;46.510;6.498;2023-03-14T11:29:41;16.52;;;1.10;;
45936;SDS011;31649;46.510;6.498;2023-03-14T11:32:35;23.48;;;2.67;;
45936;SDS011;31649;46.510;6.498;2023-03-14T11:35:16;58.55;;;4.88;;
45936;SDS011;31649;46.510;6.498;2023-03-14T11:38:02;36.90;;;4.00;;
45936;SDS011;31649;46.510;6.498;2023-03-14T11:40:30;29.08;;;4.22;;
45936;SDS011;31649;46.510;6.498;2023-03-14T11:43:00;46.50;;;5.45;;
45936;SDS011;31649;46.510;6.498;2023-03-14T11:45:35;106.75;;;7.90;;
45936;SDS011;31649;46.510;6.498;2023-03-14T11:50:31;96.93;;;45.40;;
45936;SDS011;31649;46.510;6.498;2023-03-14T11:53:02;126.10;;;25.33;;
45936;SDS011;31649;46.510;6.498;2023-03-14T11:55:40;37.13;;;4.80;;
45936;SDS011;31649;46.510;6.498;2023-03-14T11:58:13;60.60;;;7.22;;
45936;SDS011;31649;46.510;6.498;2023-03-14T12:00:42;86.13;;;8.27;;
45936;SDS011;31649;46.510;6.498;2023-03-14T12:03:20;70.90;;;8.27;;
45936;SDS011;31649;46.510;6.498;2023-03-14T12:13:40;90.88;;;7.60;;
45936;SDS011;31649;46.510;6.498;2023-03-14T12:18:49;32.92;;;8.45;;
45936;SDS011;31649;46.510;6.498;2023-03-14T12:21:15;71.90;;;13.20;;
45936;SDS011;31649;46.510;6.498;2023-03-14T12:28:48;138.55;;;12.90;;
45936;SDS011;31649;46.510;6.498;2023-03-14T12:34:01;144.35;;;13.73;;
45936;SDS011;31649;46.510;6.498;2023-03-14T12:37:04;182.00;;;10.73;;
45936;SDS011;31649;46.510;6.498;2023-03-14T12:42:17;137.25;;;9.32;;
45936;SDS011;31649;46.510;6.498;2023-03-14T12:47:54;109.80;;;7.97;;
45936;SDS011;31649;46.510;6.498;2023-03-14T12:50:34;173.48;;;11.93;;
45936;SDS011;31649;46.510;6.498;2023-03-14T12:55:45;20.17;;;1.83;;
45936;SDS011;31649;46.510;6.498;2023-03-14T12:58:44;60.42;;;3.80;;
45936;SDS011;31649;46.510;6.498;2023-03-14T13:01:15;167.07;;;13.18;;
45936;SDS011;31649;46.510;6.498;2023-03-14T13:03:45;65.55;;;4.95;;
45936;SDS011;31649;46.510;6.498;2023-03-14T13:06:44;173.05;;;8.77;;
45936;SDS011;31649;46.510;6.498;2023-03-14T13:12:23;184.82;;;10.15;;
45936;SDS011;31649;46.510;6.498;2023-03-14T13:14:57;74.03;;;4.03;;
45936;SDS011;31649;46.510;6.498;2023-03-14T13:17:28;16.38;;;2.53;;
45936;SDS011;31649;46.510;6.498;2023-03-14T13:19:57;20.55;;;2.33;;
45936;SDS011;31649;46.510;6.498;2023-03-14T13:22:31;35.87;;;8.20;;
45936;SDS011;31649;46.510;6.498;2023-03-14T13:25:09;344.42;;;34.47;;
45936;SDS011;31649;46.510;6.498;2023-03-14T13:27:36;106.43;;;20.50;;
45936;SDS011;31649;46.510;6.498;2023-03-14T13:30:05;214.65;;;25.15;;
45936;SDS011;31649;46.510;6.498;2023-03-14T13:32:40;95.88;;;7.85;;
45936;SDS011;31649;46.510;6.498;2023-03-14T13:35:14;135.55;;;10.90;;
45936;SDS011;31649;46.510;6.498;2023-03-14T13:37:45;60.95;;;6.18;;
45936;SDS011;31649;46.510;6.498;2023-03-14T13:40:45;93.18;;;6.60;;
45936;SDS011;31649;46.510;6.498;2023-03-14T13:43:05;269.67;;;20.75;;
45936;SDS011;31649;46.510;6.498;2023-03-14T13:45:51;130.63;;;10.60;;
45936;SDS011;31649;46.510;6.498;2023-03-14T13:48:20;77.20;;;8.65;;
45936;SDS011;31649;46.510;6.498;2023-03-14T13:50:54;72.25;;;4.45;;
45936;SDS011;31649;46.510;6.498;2023-03-14T13:53:22;174.32;;;10.80;;
45936;SDS011;31649;46.510;6.498;2023-03-14T13:55:49;158.20;;;12.85;;
45936;SDS011;31649;46.510;6.498;2023-03-14T13:58:26;114.82;;;9.57;;
45936;SDS011;31649;46.510;6.498;2023-03-14T14:00:58;203.63;;;15.73;;
45936;SDS011;31649;46.510;6.498;2023-03-14T14:03:24;73.45;;;4.15;;
45936;SDS011;31649;46.510;6.498;2023-03-14T14:05:50;380.25;;;22.50;;
